< < Back
Terminal Aerodrome Forecast


Current Version              Previous Versions:   1  2  3  4  5  6  7  8  9  

Terminal Aerodrome Forecast

642
FTUS42 KFFC 300500
TAFCSG
TAF
KCSG 300525Z 3006/3106 35005KT P6SM SKC
     FM301300 02004KT P6SM FEW030
     FM301800 35005KT P6SM SCT030 SCT250
     FM310300 03005KT P6SM FEW250=

Latest METAR

088
SAUS70 KWBC 302100
MTRCSG
METAR KCSG 302051Z 00000KT 10SM CLR 29/13 A3000 RMK AO2 SLP153 T02940133
56009


USA.gov is the U.S. government's official web portal to all federal, state and local government web resources and services.